sensor_id;sensor_type;location;lat;lon;timestamp;pressure;altitude;pressure_sealevel;temperature;humidity
7760;BME280;3924;48.830;9.262;2023-08-07T00:02:14;98409.84;;;12.89;81.45
7760;BME280;3924;48.830;9.262;2023-08-07T00:04:40;98407.13;;;12.89;81.50
7760;BME280;3924;48.830;9.262;2023-08-07T00:07:07;98410.66;;;12.90;81.28
7760;BME280;3924;48.830;9.262;2023-08-07T00:09:33;98415.00;;;12.91;81.36
7760;BME280;3924;48.830;9.262;2023-08-07T00:12:00;98410.66;;;12.90;81.54
7760;BME280;3924;48.830;9.262;2023-08-07T00:14:26;98415.31;;;12.89;81.21
7760;BME280;3924;48.830;9.262;2023-08-07T00:16:52;98405.22;;;12.90;81.40
7760;BME280;3924;48.830;9.262;2023-08-07T00:19:19;98417.41;;;12.92;81.45
7760;BME280;3924;48.830;9.262;2023-08-07T00:21:45;98416.91;;;12.90;81.26
7760;BME280;3924;48.830;9.262;2023-08-07T00:24:12;98415.00;;;12.91;81.26
7760;BME280;3924;48.830;9.262;2023-08-07T00:26:38;98414.50;;;12.88;81.13
7760;BME280;3924;48.830;9.262;2023-08-07T00:29:05;98423.47;;;12.89;81.39
7760;BME280;3924;48.830;9.262;2023-08-07T00:31:31;98414.81;;;12.87;81.17
7760;BME280;3924;48.830;9.262;2023-08-07T00:33:59;98428.09;;;12.88;81.00
7760;BME280;3924;48.830;9.262;2023-08-07T00:36:26;98425.38;;;12.88;81.14
7760;BME280;3924;48.830;9.262;2023-08-07T00:38:54;98425.38;;;12.88;81.05
7760;BME280;3924;48.830;9.262;2023-08-07T00:41:22;98428.63;;;12.91;81.14
7760;BME280;3924;48.830;9.262;2023-08-07T00:43:48;98425.38;;;12.88;81.14
7760;BME280;3924;48.830;9.262;2023-08-07T00:46:15;98428.63;;;12.91;81.05
7760;BME280;3924;48.830;9.262;2023-08-07T00:48:41;98421.53;;;12.90;81.06
7760;BME280;3924;48.830;9.262;2023-08-07T00:51:08;98435.66;;;12.92;81.02
7760;BME280;3924;48.830;9.262;2023-08-07T00:53:37;98432.94;;;12.92;81.00
7760;BME280;3924;48.830;9.262;2023-08-07T00:56:05;98435.34;;;12.93;80.89
7760;BME280;3924;48.830;9.262;2023-08-07T00:58:32;98444.78;;;12.96;80.72
7760;BME280;3924;48.830;9.262;2023-08-07T01:00:59;98440.94;;;12.97;80.69
7760;BME280;3924;48.830;9.262;2023-08-07T01:03:25;98434.44;;;12.98;80.49
7760;BME280;3924;48.830;9.262;2023-08-07T01:05:52;98440.66;;;12.98;80.59
7760;BME280;3924;48.830;9.262;2023-08-07T01:08:18;98438.22;;;12.97;80.68
7760;BME280;3924;48.830;9.262;2023-08-07T01:11:14;98439.88;;;12.98;80.53
7760;BME280;3924;48.830;9.262;2023-08-07T01:13:54;98438.22;;;12.97;80.33
7760;BME280;3924;48.830;9.262;2023-08-07T01:16:35;98431.19;;;12.96;80.39
7760;BME280;3924;48.830;9.262;2023-08-07T01:19:08;98446.09;;;12.98;80.40
7760;BME280;3924;48.830;9.262;2023-08-07T01:21:38;98440.66;;;12.98;80.19
7760;BME280;3924;48.830;9.262;2023-08-07T01:24:05;98442.28;;;12.99;80.24
7760;BME280;3924;48.830;9.262;2023-08-07T01:26:33;98440.34;;;13.00;80.28
7760;BME280;3924;48.830;9.262;2023-08-07T01:29:08;98440.34;;;13.00;79.95
7760;BME280;3924;48.830;9.262;2023-08-07T01:31:39;98440.34;;;13.00;79.99
7760;BME280;3924;48.830;9.262;2023-08-07T01:34:07;98437.00;;;13.03;79.90
7760;BME280;3924;48.830;9.262;2023-08-07T01:36:35;98439.72;;;13.03;79.79
7760;BME280;3924;48.830;9.262;2023-08-07T01:39:04;98437.00;;;13.03;79.77
7760;BME280;3924;48.830;9.262;2023-08-07T01:41:33;98442.44;;;13.03;79.85
7760;BME280;3924;48.830;9.262;2023-08-07T01:44:02;98437.78;;;13.03;79.67
7760;BME280;3924;48.830;9.262;2023-08-07T01:46:29;98435.38;;;13.02;79.40
7760;BME280;3924;48.830;9.262;2023-08-07T01:48:55;98439.22;;;13.01;79.42
7760;BME280;3924;48.830;9.262;2023-08-07T01:51:22;98444.66;;;13.01;79.45
7760;BME280;3924;48.830;9.262;2023-08-07T01:53:48;98446.28;;;13.02;79.39
7760;BME280;3924;48.830;9.262;2023-08-07T01:56:15;98449.00;;;13.02;79.33
7760;BME280;3924;48.830;9.262;2023-08-07T01:58:41;98460.19;;;13.00;79.13
7760;BME280;3924;48.830;9.262;2023-08-07T02:01:07;98450.13;;;13.01;79.21
7760;BME280;3924;48.830;9.262;2023-08-07T02:03:34;98447.06;;;13.02;79.15
7760;BME280;3924;48.830;9.262;2023-08-07T02:06:01;98455.56;;;13.01;79.09
7760;BME280;3924;48.830;9.262;2023-08-07T02:08:28;98449.63;;;12.99;78.92
7760;BME280;3924;48.830;9.262;2023-08-07T02:10:54;98450.75;;;12.98;78.87
7760;BME280;3924;48.830;9.262;2023-08-07T02:13:21;98447.50;;;12.96;78.70
7760;BME280;3924;48.830;9.262;2023-08-07T02:15:47;98451.34;;;12.95;78.63
7760;BME280;3924;48.830;9.262;2023-08-07T02:18:14;98453.75;;;12.96;78.57
7760;BME280;3924;48.830;9.262;2023-08-07T02:20:40;98451.34;;;12.95;78.58
7760;BME280;3924;48.830;9.262;2023-08-07T02:23:07;98461.13;;;12.96;78.57
7760;BME280;3924;48.830;9.262;2023-08-07T02:25:34;98469.28;;;12.96;78.31
7760;BME280;3924;48.830;9.262;2023-08-07T02:28:00;98471.72;;;12.97;78.23
7760;BME280;3924;48.830;9.262;2023-08-07T02:30:27;98470.09;;;12.96;78.29
7760;BME280;3924;48.830;9.262;2023-08-07T02:32:53;98466.88;;;12.94;78.23
7760;BME280;3924;48.830;9.262;2023-08-07T02:35:20;98451.66;;;12.93;78.18
7760;BME280;3924;48.830;9.262;2023-08-07T02:37:46;98458.84;;;12.89;78.34
7760;BME280;3924;48.830;9.262;2023-08-07T02:40:13;98463.78;;;12.87;78.07
7760;BME280;3924;48.830;9.262;2023-08-07T02:42:41;98470.34;;;12.86;78.23
7760;BME280;3924;48.830;9.262;2023-08-07T02:45:08;98471.47;;;12.85;78.29
7760;BME280;3924;48.830;9.262;2023-08-07T02:47:35;98470.94;;;12.83;78.17
7760;BME280;3924;48.830;9.262;2023-08-07T02:50:02;98477.81;;;12.80;77.99
7760;BME280;3924;48.830;9.262;2023-08-07T02:52:29;98478.94;;;12.79;77.91
7760;BME280;3924;48.830;9.262;2023-08-07T02:54:55;98481.66;;;12.79;77.97
7760;BME280;3924;48.830;9.262;2023-08-07T02:57:22;98475.41;;;12.79;77.94
7760;BME280;3924;48.830;9.262;2023-08-07T02:59:49;98478.47;;;12.77;77.97
7760;BME280;3924;48.830;9.262;2023-08-07T03:02:15;98465.94;;;12.76;77.95
7760;BME280;3924;48.830;9.262;2023-08-07T03:04:41;98479.06;;;12.74;77.84
7760;BME280;3924;48.830;9.262;2023-08-07T03:07:08;98472.00;;;12.73;78.00
7760;BME280;3924;48.830;9.262;2023-08-07T03:09:34;98467.69;;;12.72;77.71
7760;BME280;3924;48.830;9.262;2023-08-07T03:12:01;98468.81;;;12.71;77.81
7760;BME280;3924;48.830;9.262;2023-08-07T03:14:30;98478.09;;;12.70;77.71
7760;BME280;3924;48.830;9.262;2023-08-07T03:16:57;98482.09;;;12.73;77.81
7760;BME280;3924;48.830;9.262;2023-08-07T03:19:23;98488.16;;;12.70;77.74
7760;BME280;3924;48.830;9.262;2023-08-07T03:21:50;98488.97;;;12.70;77.56
7760;BME280;3924;48.830;9.262;2023-08-07T03:24:16;98486.25;;;12.70;77.48
7760;BME280;3924;48.830;9.262;2023-08-07T03:26:43;98489.75;;;12.71;77.44
7760;BME280;3924;48.830;9.262;2023-08-07T03:29:10;98488.97;;;12.70;77.24
7760;BME280;3924;48.830;9.262;2023-08-07T03:31:36;98500.34;;;12.72;77.19
7760;BME280;3924;48.830;9.262;2023-08-07T03:34:03;98480.50;;;12.72;77.18
7760;BME280;3924;48.830;9.262;2023-08-07T03:36:30;98476.66;;;12.73;77.23
7760;BME280;3924;48.830;9.262;2023-08-07T03:38:56;98493.28;;;12.71;77.02
7760;BME280;3924;48.830;9.262;2023-08-07T03:41:23;98485.94;;;12.72;77.05
7760;BME280;3924;48.830;9.262;2023-08-07T03:43:49;98475.84;;;12.72;77.01
7760;BME280;3924;48.830;9.262;2023-08-07T03:46:16;98486.72;;;12.72;76.86
7760;BME280;3924;48.830;9.262;2023-08-07T03:48:42;98476.16;;;12.71;76.92
7760;BME280;3924;48.830;9.262;2023-08-07T03:51:09;98484.31;;;12.71;76.77
7760;BME280;3924;48.830;9.262;2023-08-07T03:53:37;98483.53;;;12.70;76.85
7760;BME280;3924;48.830;9.262;2023-08-07T03:56:03;98485.13;;;12.71;76.61
7760;BME280;3924;48.830;9.262;2023-08-07T03:58:30;98494.41;;;12.70;76.75
7760;BME280;3924;48.830;9.262;2023-08-07T04:00:56;98485.13;;;12.71;76.73
7760;BME280;3924;48.830;9.262;2023-08-07T04:03:23;98485.13;;;12.71;76.65
7760;BME280;3924;48.830;9.262;2023-08-07T04:05:53;98488.97;;;12.70;76.49
7760;BME280;3924;48.830;9.262;2023-08-07T04:08:21;98488.16;;;12.70;76.40
7760;BME280;3924;48.830;9.262;2023-08-07T04:11:04;98496.00;;;12.71;76.43
7760;BME280;3924;48.830;9.262;2023-08-07T04:13:31;98488.97;;;12.70;76.62
7760;BME280;3924;48.830;9.262;2023-08-07T04:15:58;98490.56;;;12.71;76.56
7760;BME280;3924;48.830;9.262;2023-08-07T04:18:25;98497.63;;;12.72;76.43
7760;BME280;3924;48.830;9.262;2023-08-07T04:20:52;98504.66;;;12.73;76.45
7760;BME280;3924;48.830;9.262;2023-08-07T04:23:20;98510.09;;;12.73;76.17
7760;BME280;3924;48.830;9.262;2023-08-07T04:25:47;98507.06;;;12.75;76.20
7760;BME280;3924;48.830;9.262;2023-08-07T04:28:14;98507.88;;;12.75;76.20
7760;BME280;3924;48.830;9.262;2023-08-07T04:30:41;98505.16;;;12.75;76.25
7760;BME280;3924;48.830;9.262;2023-08-07T04:33:08;98518.75;;;12.75;76.02
7760;BME280;3924;48.830;9.262;2023-08-07T04:35:34;98516.53;;;12.77;76.19
7760;BME280;3924;48.830;9.262;2023-08-07T04:38:01;98518.75;;;12.75;75.91
7760;BME280;3924;48.830;9.262;2023-08-07T04:40:29;98521.47;;;12.75;75.82
7760;BME280;3924;48.830;9.262;2023-08-07T04:42:56;98516.03;;;12.75;75.86
7760;BME280;3924;48.830;9.262;2023-08-07T04:45:22;98525.78;;;12.76;75.96
7760;BME280;3924;48.830;9.262;2023-08-07T04:47:49;98523.59;;;12.78;75.99
7760;BME280;3924;48.830;9.262;2023-08-07T04:50:15;98523.59;;;12.78;75.74
7760;BME280;3924;48.830;9.262;2023-08-07T04:52:42;98518.94;;;12.79;75.94
7760;BME280;3924;48.830;9.262;2023-08-07T04:55:08;98520.56;;;12.80;75.85
7760;BME280;3924;48.830;9.262;2023-08-07T04:57:35;98527.59;;;12.81;75.81
7760;BME280;3924;48.830;9.262;2023-08-07T05:00:01;98527.81;;;12.84;75.50
7760;BME280;3924;48.830;9.262;2023-08-07T05:02:28;98533.25;;;12.84;75.63
7760;BME280;3924;48.830;9.262;2023-08-07T05:04:55;98534.84;;;12.85;75.77
7760;BME280;3924;48.830;9.262;2023-08-07T05:07:21;98535.66;;;12.86;75.38
7760;BME280;3924;48.830;9.262;2023-08-07T05:09:48;98538.06;;;12.87;75.52
7760;BME280;3924;48.830;9.262;2023-08-07T05:12:16;98545.09;;;12.88;75.37
7760;BME280;3924;48.830;9.262;2023-08-07T05:14:42;98548.34;;;12.91;75.52
7760;BME280;3924;48.830;9.262;2023-08-07T05:17:09;98533.63;;;12.92;75.35
7760;BME280;3924;48.830;9.262;2023-08-07T05:19:35;98544.69;;;12.95;75.33
7760;BME280;3924;48.830;9.262;2023-08-07T05:22:01;98541.63;;;12.97;75.18
7760;BME280;3924;48.830;9.262;2023-08-07T05:24:28;98544.34;;;12.97;75.38
7760;BME280;3924;48.830;9.262;2023-08-07T05:27:00;98541.34;;;12.98;75.21
7760;BME280;3924;48.830;9.262;2023-08-07T05:29:27;98546.47;;;13.00;75.05
7760;BME280;3924;48.830;9.262;2023-08-07T05:31:53;98545.84;;;13.03;75.05
7760;BME280;3924;48.830;9.262;2023-08-07T05:34:20;98540.41;;;13.03;75.10
7760;BME280;3924;48.830;9.262;2023-08-07T05:36:47;98549.09;;;13.05;75.23
7760;BME280;3924;48.830;9.262;2023-08-07T05:39:13;98552.63;;;13.05;74.91
7760;BME280;3924;48.830;9.262;2023-08-07T05:41:40;98550.88;;;13.09;74.92
7760;BME280;3924;48.830;9.262;2023-08-07T05:44:06;98559.22;;;13.13;74.78
7760;BME280;3924;48.830;9.262;2023-08-07T05:46:32;98558.31;;;13.18;74.85
7760;BME280;3924;48.830;9.262;2023-08-07T05:48:59;98551.47;;;13.20;74.69
7760;BME280;3924;48.830;9.262;2023-08-07T05:51:25;98562.25;;;13.25;74.64
7760;BME280;3924;48.830;9.262;2023-08-07T05:53:52;98559.69;;;13.29;74.52
7760;BME280;3924;48.830;9.262;2023-08-07T05:56:19;98565.13;;;13.29;74.46
7760;BME280;3924;48.830;9.262;2023-08-07T05:58:45;98559.88;;;13.32;74.43
7760;BME280;3924;48.830;9.262;2023-08-07T06:01:12;98565.81;;;13.34;74.26
7760;BME280;3924;48.830;9.262;2023-08-07T06:03:39;98571.44;;;13.38;74.35
7760;BME280;3924;48.830;9.262;2023-08-07T06:06:05;98576.59;;;13.39;74.27
7760;BME280;3924;48.830;9.262;2023-08-07T06:08:32;98575.47;;;13.40;74.13
7760;BME280;3924;48.830;9.262;2023-08-07T06:10:58;98579.78;;;13.41;74.23
7760;BME280;3924;48.830;9.262;2023-08-07T06:13:25;98587.06;;;13.46;73.94
7760;BME280;3924;48.830;9.262;2023-08-07T06:16:01;98595.88;;;13.52;74.17
7760;BME280;3924;48.830;9.262;2023-08-07T06:18:28;98597.50;;;13.53;73.88
7760;BME280;3924;48.830;9.262;2023-08-07T06:20:54;98601.84;;;13.54;73.89
7760;BME280;3924;48.830;9.262;2023-08-07T06:23:22;98606.66;;;13.57;73.76
7760;BME280;3924;48.830;9.262;2023-08-07T06:25:48;98601.06;;;13.62;73.72
7760;BME280;3924;48.830;9.262;2023-08-07T06:28:20;98606.69;;;13.65;73.50
7760;BME280;3924;48.830;9.262;2023-08-07T06:30:47;98603.03;;;13.70;73.39
7760;BME280;3924;48.830;9.262;2023-08-07T06:33:13;98594.63;;;13.80;73.24
7760;BME280;3924;48.830;9.262;2023-08-07T06:35:40;98595.34;;;13.94;73.00
7760;BME280;3924;48.830;9.262;2023-08-07T06:38:08;98595.72;;;14.10;72.81
7760;BME280;3924;48.830;9.262;2023-08-07T06:40:35;98602.06;;;14.28;72.12
7760;BME280;3924;48.830;9.262;2023-08-07T06:43:02;98603.19;;;14.36;72.19
7760;BME280;3924;48.830;9.262;2023-08-07T06:45:28;98600.16;;;14.37;72.31
7760;BME280;3924;48.830;9.262;2023-08-07T06:47:55;98602.72;;;14.42;72.09
7760;BME280;3924;48.830;9.262;2023-08-07T06:50:22;98607.84;;;14.35;72.19
7760;BME280;3924;48.830;9.262;2023-08-07T06:52:49;98600.78;;;14.34;72.24
7760;BME280;3924;48.830;9.262;2023-08-07T06:55:15;98606.59;;;14.41;71.88
7760;BME280;3924;48.830;9.262;2023-08-07T06:57:42;98604.00;;;14.36;72.05
7760;BME280;3924;48.830;9.262;2023-08-07T07:00:09;98604.59;;;14.33;72.14
7760;BME280;3924;48.830;9.262;2023-08-07T07:02:37;98602.41;;;14.35;72.01
7760;BME280;3924;48.830;9.262;2023-08-07T07:05:03;98605.59;;;14.37;71.95
7760;BME280;3924;48.830;9.262;2023-08-07T07:07:31;98603.03;;;14.41;71.67
7760;BME280;3924;48.830;9.262;2023-08-07T07:09:57;98620.34;;;14.85;71.02
7760;BME280;3924;48.830;9.262;2023-08-07T07:12:27;98614.28;;;15.40;69.82
7760;BME280;3924;48.830;9.262;2023-08-07T07:14:53;98601.53;;;15.70;69.18
7760;BME280;3924;48.830;9.262;2023-08-07T07:17:20;98612.69;;;15.65;68.98
7760;BME280;3924;48.830;9.262;2023-08-07T07:19:46;98617.81;;;15.40;69.28
7760;BME280;3924;48.830;9.262;2023-08-07T07:22:13;98609.31;;;15.24;69.57
7760;BME280;3924;48.830;9.262;2023-08-07T07:24:39;98618.78;;;15.18;69.62
7760;BME280;3924;48.830;9.262;2023-08-07T07:27:06;98625.66;;;15.16;69.49
7760;BME280;3924;48.830;9.262;2023-08-07T07:29:33;98634.22;;;15.31;69.04
7760;BME280;3924;48.830;9.262;2023-08-07T07:31:59;98630.34;;;15.32;68.78
7760;BME280;3924;48.830;9.262;2023-08-07T07:34:26;98648.34;;;15.25;68.92
7760;BME280;3924;48.830;9.262;2023-08-07T07:36:53;98637.56;;;15.20;68.83
7760;BME280;3924;48.830;9.262;2023-08-07T07:39:20;98637.88;;;15.10;69.06
7760;BME280;3924;48.830;9.262;2023-08-07T07:41:47;98637.06;;;15.61;67.80
7760;BME280;3924;48.830;9.262;2023-08-07T07:44:13;98629.50;;;15.84;67.27
7760;BME280;3924;48.830;9.262;2023-08-07T07:46:40;98628.88;;;15.70;67.58
7760;BME280;3924;48.830;9.262;2023-08-07T07:49:06;98634.66;;;15.51;67.83
7760;BME280;3924;48.830;9.262;2023-08-07T07:51:33;98624.88;;;15.32;68.17
7760;BME280;3924;48.830;9.262;2023-08-07T07:54:01;98626.66;;;15.20;68.38
7760;BME280;3924;48.830;9.262;2023-08-07T07:56:44;98634.69;;;15.25;68.38
7760;BME280;3924;48.830;9.262;2023-08-07T07:59:11;98636.91;;;15.23;68.32
7760;BME280;3924;48.830;9.262;2023-08-07T08:01:38;98639.03;;;15.26;68.15
7760;BME280;3924;48.830;9.262;2023-08-07T08:04:06;98648.00;;;15.26;68.14
7760;BME280;3924;48.830;9.262;2023-08-07T08:06:33;98648.81;;;15.18;68.25
7760;BME280;3924;48.830;9.262;2023-08-07T08:08:59;98656.34;;;15.21;68.17
7760;BME280;3924;48.830;9.262;2023-08-07T08:11:31;98651.56;;;15.18;68.00
7760;BME280;3924;48.830;9.262;2023-08-07T08:13:57;98669.53;;;15.11;68.01
7760;BME280;3924;48.830;9.262;2023-08-07T08:16:24;98656.19;;;15.00;68.24
7760;BME280;3924;48.830;9.262;2023-08-07T08:18:50;98660.22;;;15.03;68.11
7760;BME280;3924;48.830;9.262;2023-08-07T08:21:17;98670.50;;;15.06;67.74
7760;BME280;3924;48.830;9.262;2023-08-07T08:23:43;98689.41;;;15.02;67.72
7760;BME280;3924;48.830;9.262;2023-08-07T08:26:10;98665.50;;;14.99;67.56
7760;BME280;3924;48.830;9.262;2023-08-07T08:28:37;98665.81;;;15.07;67.47
7760;BME280;3924;48.830;9.262;2023-08-07T08:31:05;98673.22;;;15.15;67.37
7760;BME280;3924;48.830;9.262;2023-08-07T08:33:31;98668.75;;;15.19;66.97
7760;BME280;3924;48.830;9.262;2023-08-07T08:35:58;98660.88;;;15.26;66.68
7760;BME280;3924;48.830;9.262;2023-08-07T08:38:24;98660.06;;;15.34;66.84
7760;BME280;3924;48.830;9.262;2023-08-07T08:40:55;98669.38;;;15.42;66.58
7760;BME280;3924;48.830;9.262;2023-08-07T08:43:22;98661.97;;;15.51;66.31
7760;BME280;3924;48.830;9.262;2023-08-07T08:45:50;98664.41;;;15.61;66.06
7760;BME280;3924;48.830;9.262;2023-08-07T08:48:19;98663.13;;;15.67;65.73
7760;BME280;3924;48.830;9.262;2023-08-07T08:50:50;98669.53;;;15.71;65.63
7760;BME280;3924;48.830;9.262;2023-08-07T08:53:20;98676.47;;;15.86;65.44
7760;BME280;3924;48.830;9.262;2023-08-07T08:55:47;98673.53;;;16.08;64.86
7760;BME280;3924;48.830;9.262;2023-08-07T08:58:15;98686.41;;;16.08;64.56
7760;BME280;3924;48.830;9.262;2023-08-07T09:00:42;98685.75;;;16.02;64.45
7760;BME280;3924;48.830;9.262;2023-08-07T09:03:09;98685.13;;;15.97;64.46
7760;BME280;3924;48.830;9.262;2023-08-07T09:05:37;98673.69;;;16.03;64.20
7760;BME280;3924;48.830;9.262;2023-08-07T09:08:04;98692.31;;;16.27;63.61
7760;BME280;3924;48.830;9.262;2023-08-07T09:10:32;98686.31;;;16.34;63.34
7760;BME280;3924;48.830;9.262;2023-08-07T09:13:01;98691.13;;;16.37;63.12
7760;BME280;3924;48.830;9.262;2023-08-07T09:15:32;98683.97;;;16.53;62.88
7760;BME280;3924;48.830;9.262;2023-08-07T09:18:00;98690.69;;;16.64;62.26
7760;BME280;3924;48.830;9.262;2023-08-07T09:20:27;98701.06;;;16.50;62.44
7760;BME280;3924;48.830;9.262;2023-08-07T09:22:54;98699.81;;;16.39;62.45
7760;BME280;3924;48.830;9.262;2023-08-07T09:25:29;98693.41;;;16.35;62.41
7760;BME280;3924;48.830;9.262;2023-08-07T09:27:56;98702.41;;;16.35;62.48
7760;BME280;3924;48.830;9.262;2023-08-07T09:30:27;98692.31;;;16.27;62.29
7760;BME280;3924;48.830;9.262;2023-08-07T09:33:01;98696.81;;;16.23;62.54
7760;BME280;3924;48.830;9.262;2023-08-07T09:35:30;98696.78;;;16.32;62.16
7760;BME280;3924;48.830;9.262;2023-08-07T09:37:58;98708.00;;;16.48;61.65
7760;BME280;3924;48.830;9.262;2023-08-07T09:40:24;98708.09;;;16.60;61.41
7760;BME280;3924;48.830;9.262;2023-08-07T09:42:53;98704.06;;;16.66;61.30
7760;BME280;3924;48.830;9.262;2023-08-07T09:45:25;98706.66;;;16.62;61.19
7760;BME280;3924;48.830;9.262;2023-08-07T09:48:02;98695.50;;;16.67;60.99
7760;BME280;3924;48.830;9.262;2023-08-07T09:50:30;98723.56;;;16.64;61.19
7760;BME280;3924;48.830;9.262;2023-08-07T09:52:57;98725.81;;;16.62;61.03
7760;BME280;3924;48.830;9.262;2023-08-07T09:55:26;98719.69;;;16.65;60.77
7760;BME280;3924;48.830;9.262;2023-08-07T09:57:53;98715.78;;;16.84;60.46
7760;BME280;3924;48.830;9.262;2023-08-07T10:00:20;98723.28;;;16.95;60.24
7760;BME280;3924;48.830;9.262;2023-08-07T10:02:48;98719.13;;;16.89;60.18
7760;BME280;3924;48.830;9.262;2023-08-07T10:05:15;98735.88;;;16.88;60.13
7760;BME280;3924;48.830;9.262;2023-08-07T10:07:42;98722.19;;;16.88;59.92
7760;BME280;3924;48.830;9.262;2023-08-07T10:10:10;98713.19;;;17.08;59.23
7760;BME280;3924;48.830;9.262;2023-08-07T10:12:37;98722.94;;;17.27;59.02
7760;BME280;3924;48.830;9.262;2023-08-07T10:15:06;98705.50;;;17.52;58.57
7760;BME280;3924;48.830;9.262;2023-08-07T10:17:33;98706.25;;;17.82;57.80
7760;BME280;3924;48.830;9.262;2023-08-07T10:20:00;98714.56;;;18.07;57.42
7760;BME280;3924;48.830;9.262;2023-08-07T10:22:29;98729.47;;;17.85;57.60
7760;BME280;3924;48.830;9.262;2023-08-07T10:24:59;98719.13;;;17.40;58.33
7760;BME280;3924;48.830;9.262;2023-08-07T10:27:29;98713.97;;;17.17;58.87
7760;BME280;3924;48.830;9.262;2023-08-07T10:29:56;98712.75;;;17.06;58.98
7760;BME280;3924;48.830;9.262;2023-08-07T10:32:25;98718.13;;;16.94;59.23
7760;BME280;3924;48.830;9.262;2023-08-07T10:34:52;98720.41;;;16.92;59.21
7760;BME280;3924;48.830;9.262;2023-08-07T10:37:42;98721.81;;;16.98;58.88
7760;BME280;3924;48.830;9.262;2023-08-07T10:40:12;98722.94;;;17.27;58.27
7760;BME280;3924;48.830;9.262;2023-08-07T10:42:58;98715.84;;;17.67;57.30
7760;BME280;3924;48.830;9.262;2023-08-07T10:45:26;98725.06;;;17.71;56.98
7760;BME280;3924;48.830;9.262;2023-08-07T10:48:12;98710.13;;;17.60;57.25
7760;BME280;3924;48.830;9.262;2023-08-07T10:50:56;98720.53;;;17.46;57.52
7760;BME280;3924;48.830;9.262;2023-08-07T10:53:31;98728.28;;;17.23;57.98
7760;BME280;3924;48.830;9.262;2023-08-07T10:56:02;98723.06;;;17.09;58.09
7760;BME280;3924;48.830;9.262;2023-08-07T10:58:33;98721.69;;;17.15;57.84
7760;BME280;3924;48.830;9.262;2023-08-07T11:03:55;98718.13;;;16.94;58.31
7760;BME280;3924;48.830;9.262;2023-08-07T11:06:27;98726.84;;;16.87;58.27
7760;BME280;3924;48.830;9.262;2023-08-07T11:08:55;98729.47;;;16.84;58.55
7760;BME280;3924;48.830;9.262;2023-08-07T11:11:21;98729.19;;;16.77;58.43
7760;BME280;3924;48.830;9.262;2023-08-07T11:13:48;98750.13;;;16.64;58.72
7760;BME280;3924;48.830;9.262;2023-08-07T11:16:15;98740.34;;;16.46;58.59
7760;BME280;3924;48.830;9.262;2023-08-07T11:18:42;98732.84;;;16.34;59.06
7760;BME280;3924;48.830;9.262;2023-08-07T11:21:09;98741.22;;;16.29;59.09
7760;BME280;3924;48.830;9.262;2023-08-07T11:23:38;98746.22;;;16.27;58.97
7760;BME280;3924;48.830;9.262;2023-08-07T11:26:04;98738.31;;;16.25;58.95
7760;BME280;3924;48.830;9.262;2023-08-07T11:28:31;98736.22;;;16.31;58.69
7760;BME280;3924;48.830;9.262;2023-08-07T11:30:58;98735.41;;;16.30;58.76
7760;BME280;3924;48.830;9.262;2023-08-07T11:33:26;98734.78;;;16.33;58.41
7760;BME280;3924;48.830;9.262;2023-08-07T11:35:54;98735.88;;;16.41;58.54
7760;BME280;3924;48.830;9.262;2023-08-07T11:38:34;98737.13;;;16.52;57.98
7760;BME280;3924;48.830;9.262;2023-08-07T11:41:03;98725.16;;;16.65;57.83
7760;BME280;3924;48.830;9.262;2023-08-07T11:43:31;98729.47;;;16.84;57.50
7760;BME280;3924;48.830;9.262;2023-08-07T11:45:58;98730.88;;;16.90;57.45
7760;BME280;3924;48.830;9.262;2023-08-07T11:48:26;98737.69;;;16.84;57.38
7760;BME280;3924;48.830;9.262;2023-08-07T11:50:54;98724.84;;;16.76;57.66
7760;BME280;3924;48.830;9.262;2023-08-07T11:53:21;98738.38;;;16.63;57.82
7760;BME280;3924;48.830;9.262;2023-08-07T11:56:05;98741.44;;;16.53;58.13
7760;BME280;3924;48.830;9.262;2023-08-07T11:58:51;98748.44;;;16.42;58.35
7760;BME280;3924;48.830;9.262;2023-08-07T12:01:23;98754.06;;;16.37;58.42
7760;BME280;3924;48.830;9.262;2023-08-07T12:06:17;98752.00;;;16.34;58.38
7760;BME280;3924;48.830;9.262;2023-08-07T12:08:44;98751.34;;;16.37;58.53
7760;BME280;3924;48.830;9.262;2023-08-07T12:11:12;98752.94;;;16.38;58.44
7760;BME280;3924;48.830;9.262;2023-08-07T12:13:40;98761.63;;;16.40;58.45
7760;BME280;3924;48.830;9.262;2023-08-07T12:16:08;98763.84;;;16.47;58.23
7760;BME280;3924;48.830;9.262;2023-08-07T12:18:35;98773.19;;;16.54;58.27
7760;BME280;3924;48.830;9.262;2023-08-07T12:21:06;98766.59;;;16.55;58.14
7760;BME280;3924;48.830;9.262;2023-08-07T12:23:34;98764.78;;;16.59;58.10
7760;BME280;3924;48.830;9.262;2023-08-07T12:26:02;98771.84;;;16.69;58.06
7760;BME280;3924;48.830;9.262;2023-08-07T12:28:29;98777.00;;;16.79;57.88
7760;BME280;3924;48.830;9.262;2023-08-07T12:30:56;98761.34;;;16.80;57.94
7760;BME280;3924;48.830;9.262;2023-08-07T12:33:22;98767.47;;;16.85;57.81
7760;BME280;3924;48.830;9.262;2023-08-07T12:35:49;98766.63;;;16.93;57.74
7760;BME280;3924;48.830;9.262;2023-08-07T12:38:15;98760.50;;;16.97;57.75
7760;BME280;3924;48.830;9.262;2023-08-07T12:40:43;98763.38;;;17.00;57.84
7760;BME280;3924;48.830;9.262;2023-08-07T12:43:10;98773.41;;;16.96;58.01
7760;BME280;3924;48.830;9.262;2023-08-07T12:45:37;98768.44;;;16.89;57.94
7760;BME280;3924;48.830;9.262;2023-08-07T12:48:06;98759.03;;;16.99;57.96
7760;BME280;3924;48.830;9.262;2023-08-07T12:50:34;98756.06;;;17.13;57.95
7760;BME280;3924;48.830;9.262;2023-08-07T12:53:00;98764.22;;;17.21;57.59
7760;BME280;3924;48.830;9.262;2023-08-07T12:55:27;98748.72;;;17.26;57.58
7760;BME280;3924;48.830;9.262;2023-08-07T12:57:55;98760.94;;;17.37;57.30
7760;BME280;3924;48.830;9.262;2023-08-07T13:00:22;98768.56;;;17.52;56.97
7760;BME280;3924;48.830;9.262;2023-08-07T13:02:50;98759.47;;;17.60;57.01
7760;BME280;3924;48.830;9.262;2023-08-07T13:05:17;98773.34;;;17.55;57.23
7760;BME280;3924;48.830;9.262;2023-08-07T13:07:46;98767.31;;;17.41;57.46
7760;BME280;3924;48.830;9.262;2023-08-07T13:10:14;98763.56;;;17.25;57.81
7760;BME280;3924;48.830;9.262;2023-08-07T13:12:43;98767.81;;;17.13;58.20
7760;BME280;3924;48.830;9.262;2023-08-07T13:15:12;98774.31;;;17.09;58.49
7760;BME280;3924;48.830;9.262;2023-08-07T13:17:39;98761.91;;;17.03;58.58
7760;BME280;3924;48.830;9.262;2023-08-07T13:20:07;98766.91;;;17.01;58.77
7760;BME280;3924;48.830;9.262;2023-08-07T13:22:35;98769.19;;;16.99;59.10
7760;BME280;3924;48.830;9.262;2023-08-07T13:25:02;98760.50;;;16.97;59.00
7760;BME280;3924;48.830;9.262;2023-08-07T13:27:31;98765.47;;;17.03;59.09
7760;BME280;3924;48.830;9.262;2023-08-07T13:29:57;98768.00;;;17.08;58.87
7760;BME280;3924;48.830;9.262;2023-08-07T13:32:25;98763.56;;;17.25;58.83